KDBN/DBN METAR and TAF weather

Enter ICAO airport designator
Station Type Date Time Source
KDBN METAR 2020/11/27 14:55 UTC NOAA

KDBN 271455Z AUTO 00000KT 10SM BKN110 17/10 A3017 RMK AO2


Station Type Date Time Source
KDBN Decoded METAR 2020/11/27 14:55 UTC NOAA

Dublin, W H 'Bud' Barron Airport, GA, United States (KDBN) 32-33-52N 082-59-06W
Nov 27, 2020 - 09:55 AM EST / 2020.11.27 1455 UTC
Wind: Calm:0
Visibility: 10 mile(s):0
Sky conditions: mostly cloudy
Temperature: 62 F (17 C)
Dew Point: 50 F (10 C)
Relative Humidity: 63%
Pressure (altimeter): 30.17 in. Hg (1021 hPa)
ob: KDBN 271455Z AUTO 00000KT 10SM BKN110 17/10 A3017 RMK AO2
cycle: 15

Station Type Date Time Source
KDBN TAF UTC NOAA

Error!

Example: see airport list